Tiger — 9HA2271 — position and weather

sailwx.info

Track history (hours):
 
Tides and Currents Weather Stations Pressure Air Temp Water Temp Dewpoint Dewpoint Depression Visibility Wind Speed Wind Dir Waves Ship Positions

Tiger

Last reported at 2014-Nov-22 10:17 UTC. Time now 2014-Nov-25 01:54 UTC.
Position N 33°50' E 134°57'.

Length 232 m; draft 9.5 m.

Type: Cargo ship. MMSI: 248223000.

Date/timePositionNaut miles runAvg speedWind from/ knotsBaromVisibWave heightAir tempDewpointWater temp
2014-Nov-22 10:17N 33°50' E 134°57'1418.6
2014-Nov-22 09:33N 34°04' E 134°56'1616.0
2014-Nov-22 08:33N 34°20' E 134°59'1515.3
2014-Nov-22 07:33N 34°34' E 135°06'1515.5
2014-Nov-22 06:33N 34°34' E 134°47'8 0.9
2014-Nov-21 21:28N 34°42' E 134°50'7 7.2
2014-Nov-21 20:29N 34°36' E 134°44'9 9.3
2014-Nov-21 19:34N 34°36' E 134°54'1313.4
2014-Nov-21 18:33N 34°35' E 135°11'3 2.5
2014-Nov-21 17:30N 34°35' E 135°14'0 0.0
2014-Nov-21 16:30N 34°35' E 135°14'0 0.0
2014-Nov-21 15:30N 34°35' E 135°14'0 0.0
2014-Nov-21 14:30N 34°35' E 135°14'0 0.0
2014-Nov-21 13:33N 34°35' E 135°14'0 0.0
2014-Nov-21 12:33N 34°35' E 135°14'0 0.1
2014-Nov-21 11:33N 34°35' E 135°14'0 0.1
2014-Nov-21 10:33N 34°35' E 135°14'0 0.1
2014-Nov-21 09:33N 34°35' E 135°14'0 0.0
2014-Nov-21 08:33N 34°35' E 135°14'7 7.0
2014-Nov-21 07:33N 34°41' E 135°18'0 0.2
2014-Nov-21 06:33N 34°41' E 135°17'0 0.0
2014-Nov-21 05:33N 34°41' E 135°17'0 0.0
2014-Nov-21 04:33N 34°41' E 135°17'0 0.0
2014-Nov-21 03:32N 34°41' E 135°17'0 0.0
2014-Nov-21 02:33N 34°41' E 135°17'0 0.0
2014-Nov-21 01:33N 34°41' E 135°17'0 0.0
2014-Nov-21 00:33N 34°41' E 135°17'0 0.0
2014-Nov-20 23:26N 34°41' E 135°17'0 0.0
2014-Nov-20 22:33N 34°41' E 135°17'5 4.8
2014-Nov-20 21:33N 34°36' E 135°17'1111.2
2014-Nov-20 20:33N 34°27' E 135°09'1514.9
2014-Nov-20 19:34N 34°15' E 134°59'1312.6
2014-Nov-20 18:34N 34°02' E 134°59'243 7.1
2014-Nov-19 08:34N 35°06' E 139°44'1212.0
2014-Nov-19 07:33N 35°18' E 139°44'10 9.0
2014-Nov-19 06:30N 35°28' E 139°41'0 0.1
2014-Nov-19 05:33N 35°28' E 139°41'0 0.0
2014-Nov-19 04:33N 35°28' E 139°41'0 0.0
2014-Nov-19 03:33N 35°28' E 139°41'0 0.0
2014-Nov-19 02:33N 35°28' E 139°41'0 0.0
2014-Nov-19 01:33N 35°28' E 139°41'0 0.0
2014-Nov-19 00:33N 35°28' E 139°41'0 0.0
2014-Nov-18 23:33N 35°28' E 139°41'0 0.0
2014-Nov-18 22:33N 35°28' E 139°41'6 5.8
2014-Nov-18 21:33N 35°23' E 139°46'1211.6
2014-Nov-18 20:33N 35°12' E 139°47'8 7.7
2014-Nov-18 19:31N 35°04' E 139°45'  
Track history (hours):
 
Tides and Currents Weather Stations Pressure Air Temp Water Temp Dewpoint Dewpoint Depression Visibility Wind Speed Wind Dir Waves Ship Positions

Tiger

Last reported at 2014-Nov-22 10:17 UTC. Time now 2014-Nov-25 01:54 UTC.
Position N 33°50' E 134°57'.

Length 232 m; draft 9.5 m.

Type: Cargo ship. MMSI: 248223000.

Date/timePositionNaut miles runAvg speedWind from/ knotsBaromVisibWave heightAir tempDewpointWater temp
2014-Nov-22 10:17N 33°50' E 134°57'1418.6
2014-Nov-22 09:33N 34°04' E 134°56'1616.0
2014-Nov-22 08:33N 34°20' E 134°59'1515.3
2014-Nov-22 07:33N 34°34' E 135°06'1515.5
2014-Nov-22 06:33N 34°34' E 134°47'8 0.9
2014-Nov-21 21:28N 34°42' E 134°50'7 7.2
2014-Nov-21 20:29N 34°36' E 134°44'9 9.3
2014-Nov-21 19:34N 34°36' E 134°54'1313.4
2014-Nov-21 18:33N 34°35' E 135°11'3 2.5
2014-Nov-21 17:30N 34°35' E 135°14'0 0.0
2014-Nov-21 16:30N 34°35' E 135°14'0 0.0
2014-Nov-21 15:30N 34°35' E 135°14'0 0.0
2014-Nov-21 14:30N 34°35' E 135°14'0 0.0
2014-Nov-21 13:33N 34°35' E 135°14'0 0.0
2014-Nov-21 12:33N 34°35' E 135°14'0 0.1
2014-Nov-21 11:33N 34°35' E 135°14'0 0.1
2014-Nov-21 10:33N 34°35' E 135°14'0 0.1
2014-Nov-21 09:33N 34°35' E 135°14'0 0.0
2014-Nov-21 08:33N 34°35' E 135°14'7 7.0
2014-Nov-21 07:33N 34°41' E 135°18'0 0.2
2014-Nov-21 06:33N 34°41' E 135°17'0 0.0
2014-Nov-21 05:33N 34°41' E 135°17'0 0.0
2014-Nov-21 04:33N 34°41' E 135°17'0 0.0
2014-Nov-21 03:32N 34°41' E 135°17'0 0.0
2014-Nov-21 02:33N 34°41' E 135°17'0 0.0
2014-Nov-21 01:33N 34°41' E 135°17'0 0.0
2014-Nov-21 00:33N 34°41' E 135°17'0 0.0
2014-Nov-20 23:26N 34°41' E 135°17'0 0.0
2014-Nov-20 22:33N 34°41' E 135°17'5 4.8
2014-Nov-20 21:33N 34°36' E 135°17'1111.2
2014-Nov-20 20:33N 34°27' E 135°09'1514.9
2014-Nov-20 19:34N 34°15' E 134°59'1312.6
2014-Nov-20 18:34N 34°02' E 134°59'243 7.1
2014-Nov-19 08:34N 35°06' E 139°44'1212.0
2014-Nov-19 07:33N 35°18' E 139°44'10 9.0
2014-Nov-19 06:30N 35°28' E 139°41'0 0.1
2014-Nov-19 05:33N 35°28' E 139°41'0 0.0
2014-Nov-19 04:33N 35°28' E 139°41'0 0.0
2014-Nov-19 03:33N 35°28' E 139°41'0 0.0
2014-Nov-19 02:33N 35°28' E 139°41'0 0.0
2014-Nov-19 01:33N 35°28' E 139°41'0 0.0
2014-Nov-19 00:33N 35°28' E 139°41'0 0.0
2014-Nov-18 23:33N 35°28' E 139°41'0 0.0
2014-Nov-18 22:33N 35°28' E 139°41'6 5.8
2014-Nov-18 21:33N 35°23' E 139°46'1211.6
2014-Nov-18 20:33N 35°12' E 139°47'8 7.7
2014-Nov-18 19:31N 35°04' E 139°45'  

Dump ship's entire track history